Time;durP1;ratioP1;P1;durP2;ratioP2;P2;SDS_P1;SDS_P2;PMS_P1;PMS_P2;Temp;Humidity;BMP_temperature;BMP_pressure;BME280_temperature;BME280_humidity;BME280_pressure;Samples;Min_cycle;Max_cycle;Signal;HPM_P1;HPM_P2
2022/03/25 00:02:19;;;;;;;17.53;11.73;;;;;;;20.59;43.30;102869.97;5032171;28;20278;-70
2022/03/25 00:04:44;;;;;;;14.65;11.15;;;;;;;20.59;43.32;102868.16;5032630;28;20721;-70
2022/03/25 00:07:10;;;;;;;14.63;11.00;;;;;;;20.58;43.22;102874.41;5032815;28;20044;-70
2022/03/25 00:09:35;;;;;;;15.18;11.35;;;;;;;20.56;43.25;102873.66;5031591;28;20762;-71
2022/03/25 00:12:01;;;;;;;16.92;11.65;;;;;;;20.56;43.10;102875.47;5032580;28;20096;-70
2022/03/25 00:14:26;;;;;;;15.27;10.40;;;;;;;20.54;43.33;102878.19;5033021;28;20039;-70
2022/03/25 00:16:51;;;;;;;17.85;11.15;;;;;;;20.53;43.05;102879.13;5031586;28;20473;-70
2022/03/25 00:19:16;;;;;;;16.10;11.67;;;;;;;20.51;42.80;102878.38;5033419;28;20035;-70
2022/03/25 00:21:42;;;;;;;13.97;10.93;;;;;;;20.47;42.98;102876.84;5032280;28;20290;-71
2022/03/25 00:24:07;;;;;;;17.40;11.10;;;;;;;20.48;42.88;102882.03;5031858;28;20278;-70
2022/03/25 00:26:32;;;;;;;18.98;12.35;;;;;;;20.50;42.97;102881.13;5032670;28;20279;-70
2022/03/25 00:28:58;;;;;;;17.15;12.45;;;;;;;20.48;42.75;102882.03;5032274;28;20440;-70
2022/03/25 00:31:23;;;;;;;16.88;11.95;;;;;;;20.49;43.12;102880.28;5031856;28;20025;-70
2022/03/25 00:33:49;;;;;;;15.07;11.35;;;;;;;20.49;42.78;102880.28;5032188;28;20469;-70
2022/03/25 00:36:16;;;;;;;16.48;11.57;;;;;;;20.48;42.76;102882.03;5032603;28;20105;-70
2022/03/25 00:38:41;;;;;;;14.50;10.82;;;;;;;20.47;42.68;102880.38;5035462;28;20028;-70
2022/03/25 00:41:07;;;;;;;16.20;11.88;;;;;;;20.46;42.73;102878.66;5036532;28;20456;-70
2022/03/25 00:43:34;;;;;;;18.67;12.77;;;;;;;20.43;42.41;102873.53;5037154;28;20029;-70
2022/03/25 00:45:59;;;;;;;16.83;11.82;;;;;;;20.42;42.72;102868.31;5036921;28;20071;-70
2022/03/25 00:48:25;;;;;;;17.20;11.40;;;;;;;20.42;42.72;102877.13;5036641;28;20411;-70
2022/03/25 00:50:50;;;;;;;15.43;11.32;;;;;;;20.44;42.42;102884.97;5036150;28;20040;-70
2022/03/25 00:53:15;;;;;;;14.53;11.27;;;;;;;20.41;42.50;102869.25;5035720;28;20036;-70
2022/03/25 00:55:41;;;;;;;15.10;11.60;;;;;;;20.40;42.66;102879.00;5036382;28;20271;-70
2022/03/25 00:58:06;;;;;;;14.52;10.98;;;;;;;20.40;42.50;102872.88;5036292;28;20438;-70
2022/03/25 01:00:32;;;;;;;15.93;11.20;;;;;;;20.40;42.42;102875.50;5035543;28;20029;-70
2022/03/25 01:02:57;;;;;;;15.88;11.07;;;;;;;20.40;42.44;102868.41;5036021;28;20078;-70
2022/03/25 01:05:22;;;;;;;15.50;11.03;;;;;;;20.40;42.52;102876.34;5035387;28;20473;-70
2022/03/25 01:07:47;;;;;;;13.87;11.30;;;;;;;20.36;42.14;102871.34;5035842;28;20495;-70
2022/03/25 01:10:13;;;;;;;15.40;11.53;;;;;;;20.37;42.17;102867.75;5035807;28;20271;-70
2022/03/25 01:12:38;;;;;;;15.15;11.05;;;;;;;20.40;42.23;102873.72;5034636;28;20274;-70
2022/03/25 01:15:04;;;;;;;15.40;12.18;;;;;;;20.36;42.09;102876.63;5035741;28;20469;-71
2022/03/25 01:17:30;;;;;;;18.40;11.80;;;;;;;20.38;42.23;102872.13;5035580;28;20021;-70
2022/03/25 01:19:55;;;;;;;16.33;11.82;;;;;;;20.36;42.28;102880.16;5034762;28;20033;-70
2022/03/25 01:22:21;;;;;;;17.13;11.57;;;;;;;20.36;42.05;102877.50;5035637;28;20033;-70
2022/03/25 01:24:47;;;;;;;16.48;11.45;;;;;;;20.35;42.12;102880.25;5035282;28;20026;-70
2022/03/25 01:27:12;;;;;;;15.48;11.43;;;;;;;20.33;42.02;102882.97;5034798;28;20424;-70
2022/03/25 01:29:37;;;;;;;15.40;11.07;;;;;;;20.29;41.85;102874.34;5034976;28;20113;-70
2022/03/25 01:32:04;;;;;;;14.77;11.48;;;;;;;20.28;42.08;102880.59;5035500;28;20270;-70
2022/03/25 01:34:30;;;;;;;15.35;11.27;;;;;;;20.28;42.06;102877.06;5034802;28;20052;-71
2022/03/25 01:36:55;;;;;;;16.63;11.38;;;;;;;20.26;42.02;102869.22;5035038;28;20030;-70
2022/03/25 01:39:20;;;;;;;15.90;11.73;;;;;;;20.25;42.19;102870.19;5035463;28;20116;-71
2022/03/25 01:41:47;;;;;;;14.50;10.65;;;;;;;20.24;41.94;102868.47;5034106;28;20670;-70
2022/03/25 01:44:13;;;;;;;18.25;11.52;;;;;;;20.21;42.07;102862.50;5035197;28;20026;-70
2022/03/25 01:46:38;;;;;;;14.35;11.05;;;;;;;20.23;41.99;102863.25;5035148;28;20629;-71
2022/03/25 01:49:05;;;;;;;13.23;9.75;;;;;;;20.21;42.16;102862.50;5033934;28;20033;-71
2022/03/25 01:51:34;;;;;;;15.85;11.07;;;;;;;20.21;41.99;102863.34;5035286;28;20051;-71
2022/03/25 01:54:21;;;;;;;14.93;11.52;;;;;;;20.19;41.96;102865.25;5035101;28;20112;-70
2022/03/25 01:57:17;;;;;;;15.98;11.10;;;;;;;20.17;42.10;102864.50;5033866;28;20345;-71
2022/03/25 01:59:42;;;;;;;14.38;10.95;;;;;;;20.17;42.08;102869.78;5030253;28;20473;-70
2022/03/25 02:02:08;;;;;;;17.80;12.33;;;;;;;20.15;41.89;102871.66;5034240;28;20030;-70
2022/03/25 02:04:34;;;;;;;17.10;11.63;;;;;;;20.09;41.80;102864.94;5034675;28;20279;-70
2022/03/25 02:06:59;;;;;;;16.83;11.38;;;;;;;20.12;41.97;102869.19;5034818;28;20025;-70
2022/03/25 02:09:25;;;;;;;20.02;11.52;;;;;;;20.09;42.12;102866.69;5033995;28;20032;-70
2022/03/25 02:11:51;;;;;;;15.05;10.95;;;;;;;20.08;42.08;102868.50;5034344;28;20087;-69
2022/03/25 02:14:16;;;;;;;14.80;10.70;;;;;;;20.06;42.22;102862.47;5034848;28;20494;-70
2022/03/25 02:16:46;;;;;;;14.60;10.80;;;;;;;20.05;42.03;102871.31;5033736;28;20484;-70
2022/03/25 02:19:13;;;;;;;14.02;10.23;;;;;;;20.05;41.97;102870.47;5034604;28;20022;-70
2022/03/25 02:21:41;;;;;;;17.17;11.07;;;;;;;20.01;42.03;102863.66;5034052;28;20393;-70
2022/03/25 02:24:08;;;;;;;16.38;11.25;;;;;;;20.00;42.00;102870.75;5033701;28;20553;-70
2022/03/25 02:26:35;;;;;;;16.27;10.55;;;;;;;19.97;41.85;102865.63;5034161;28;20026;-70
2022/03/25 02:29:01;;;;;;;18.63;11.45;;;;;;;19.97;42.08;102868.28;5034532;28;20420;-70
2022/03/25 02:31:27;;;;;;;17.25;11.18;;;;;;;19.97;42.01;102862.97;5033653;28;20048;-69
2022/03/25 02:33:55;;;;;;;14.52;10.77;;;;;;;19.94;41.69;102860.50;5034148;28;20377;-69
2022/03/25 02:36:21;;;;;;;13.60;10.23;;;;;;;19.94;41.73;102856.06;5034114;28;20045;-70
2022/03/25 02:38:46;;;;;;;15.93;10.47;;;;;;;19.94;41.75;102861.34;5033373;28;20473;-70
2022/03/25 02:41:11;;;;;;;15.27;10.73;;;;;;;19.93;41.97;102858.78;5033951;28;20397;-71
2022/03/25 02:43:36;;;;;;;16.10;11.57;;;;;;;19.88;41.53;102851.13;5033858;28;20025;-70
2022/03/25 02:46:02;;;;;;;16.35;11.10;;;;;;;19.92;41.89;102863.25;5033484;28;20025;-71
2022/03/25 02:48:27;;;;;;;15.95;10.73;;;;;;;19.91;41.57;102861.53;5034005;28;20489;-71
2022/03/25 02:50:52;;;;;;;14.13;10.00;;;;;;;19.90;41.70;102866.91;5033216;28;20105;-70
2022/03/25 02:53:18;;;;;;;16.97;10.60;;;;;;;19.89;41.45;102863.41;5034047;28;20408;-70
2022/03/25 02:55:43;;;;;;;13.68;10.48;;;;;;;19.87;41.56;102859.16;5033546;28;20650;-70
2022/03/25 02:58:09;;;;;;;15.80;10.45;;;;;;;19.87;41.54;102859.16;5033331;28;20040;-70
2022/03/25 03:00:35;;;;;;;15.20;10.60;;;;;;;19.86;41.61;102858.28;5032320;28;20029;-71
2022/03/25 03:03:01;;;;;;;14.50;10.55;;;;;;;19.85;41.48;102861.91;5032880;28;20415;-70
2022/03/25 03:05:27;;;;;;;16.10;10.30;;;;;;;19.84;41.62;102856.69;5032221;28;20036;-70
2022/03/25 03:07:54;;;;;;;14.27;9.60;;;;;;;19.83;41.61;102857.63;5032752;28;20022;-71
2022/03/25 03:10:19;;;;;;;16.60;10.27;;;;;;;19.81;41.41;102863.00;5033167;28;20025;-69
2022/03/25 03:12:45;;;;;;;16.40;10.38;;;;;;;19.79;41.35;102856.09;5031811;28;20042;-69
2022/03/25 03:15:12;;;;;;;13.20;10.10;;;;;;;19.79;41.52;102864.91;5032717;28;20076;-70
2022/03/25 03:17:37;;;;;;;13.30;9.82;;;;;;;19.78;41.23;102860.53;5032463;28;20025;-70
2022/03/25 03:20:04;;;;;;;15.13;10.55;;;;;;;19.74;41.39;102858.94;5031819;28;20035;-70
2022/03/25 03:22:29;;;;;;;14.07;9.50;;;;;;;19.77;41.48;102855.31;5032866;28;20090;-71
2022/03/25 03:24:55;;;;;;;13.50;9.50;;;;;;;19.80;41.40;102866.56;5032408;28;20067;-71
2022/03/25 03:27:20;;;;;;;14.93;10.00;;;;;;;19.77;41.37;102863.25;5031856;28;20029;-70
2022/03/25 03:29:45;;;;;;;14.20;9.95;;;;;;;19.73;41.38;102868.69;5032552;28;20017;-70
2022/03/25 03:32:11;;;;;;;14.88;10.23;;;;;;;19.73;40.81;102865.19;5032512;28;20176;-70
2022/03/25 03:34:36;;;;;;;13.65;10.00;;;;;;;19.70;41.33;102863.56;5031320;28;20036;-70
2022/03/25 03:37:02;;;;;;;13.63;9.60;;;;;;;19.70;41.43;102863.56;5032767;28;20035;-71
2022/03/25 03:39:28;;;;;;;15.45;9.18;;;;;;;19.70;41.14;102857.44;5033301;28;20068;-70
2022/03/25 03:41:53;;;;;;;14.38;8.90;;;;;;;19.69;41.19;102859.25;5031820;28;20033;-71
2022/03/25 03:44:18;;;;;;;11.83;9.00;;;;;;;19.67;40.96;102862.91;5033123;28;20033;-70
2022/03/25 03:46:44;;;;;;;13.90;9.63;;;;;;;19.65;41.17;102855.06;5032671;28;20639;-71
2022/03/25 03:49:09;;;;;;;12.77;9.27;;;;;;;19.67;41.38;102858.44;5032174;28;20026;-70
2022/03/25 03:51:34;;;;;;;12.00;8.90;;;;;;;19.66;40.90;102858.53;5032625;28;20025;-70
2022/03/25 03:54:00;;;;;;;13.47;9.33;;;;;;;19.65;41.21;102863.00;5032596;28;20422;-69
2022/03/25 03:56:25;;;;;;;13.57;8.93;;;;;;;19.62;40.89;102860.50;5033144;28;20277;-70
2022/03/25 03:58:52;;;;;;;12.88;8.85;;;;;;;19.60;41.12;102858.88;5032696;28;20461;-70
2022/03/25 04:01:17;;;;;;;13.07;8.52;;;;;;;19.60;41.33;102864.16;5032135;28;20041;-70
2022/03/25 04:03:43;;;;;;;12.10;8.48;;;;;;;19.57;40.88;102866.06;5032618;28;20021;-70
2022/03/25 04:06:09;;;;;;;12.38;9.57;;;;;;;19.55;41.09;102862.66;5032795;28;20375;-70
2022/03/25 04:08:35;;;;;;;12.57;9.90;;;;;;;19.56;40.80;102860.84;5031960;28;20026;-70
2022/03/25 04:11:00;;;;;;;11.60;8.52;;;;;;;19.54;41.07;102858.28;5032669;28;20021;-70
2022/03/25 04:13:26;;;;;;;14.13;9.73;;;;;;;19.54;40.94;102860.09;5032528;28;20060;-70
2022/03/25 04:15:51;;;;;;;14.32;9.05;;;;;;;19.52;40.90;102860.19;5031617;28;20025;-70
2022/03/25 04:18:17;;;;;;;13.17;8.93;;;;;;;19.52;40.94;102867.25;5032663;28;20048;-70
2022/03/25 04:20:42;;;;;;;14.55;9.75;;;;;;;19.52;40.72;102867.25;5032111;28;20293;-70
2022/03/25 04:23:07;;;;;;;15.85;9.82;;;;;;;19.49;40.64;102863.00;5032247;28;20029;-70
2022/03/25 04:25:32;;;;;;;13.75;9.27;;;;;;;19.36;40.73;102846.94;5032767;28;20022;-71
2022/03/25 04:27:58;;;;;;;12.83;9.43;;;;;;;19.49;40.83;102873.56;5032435;28;20032;-71
2022/03/25 04:30:29;;;;;;;13.50;9.82;;;;;;;19.46;40.63;102872.88;5031833;28;20272;-70
2022/03/25 04:32:56;;;;;;;12.85;9.30;;;;;;;19.46;40.77;102881.66;5032228;28;20013;-69
2022/03/25 04:35:24;;;;;;;13.20;8.93;;;;;;;19.47;40.60;102880.75;5032565;28;20022;-69
2022/03/25 04:37:50;;;;;;;15.35;9.45;;;;;;;19.44;40.55;102883.56;5031641;28;20025;-69
2022/03/25 04:40:19;;;;;;;15.77;9.70;;;;;;;19.43;41.00;102878.34;5032474;28;20105;-69
2022/03/25 04:42:49;;;;;;;14.20;9.07;;;;;;;19.43;40.72;102881.00;5032552;28;20029;-69
2022/03/25 04:45:15;;;;;;;13.07;8.95;;;;;;;19.40;40.70;102882.84;5031738;28;20026;-70
2022/03/25 04:47:42;;;;;;;13.57;9.35;;;;;;;19.39;40.70;102885.56;5031875;28;20401;-69
2022/03/25 04:50:08;;;;;;;13.52;9.40;;;;;;;19.37;40.64;102880.38;5032452;28;20476;-69
2022/03/25 04:52:33;;;;;;;12.55;9.23;;;;;;;19.36;40.80;102878.69;5031213;28;20473;-69
2022/03/25 04:54:58;;;;;;;14.07;9.55;;;;;;;19.35;40.47;102878.75;5032328;28;20083;-69
2022/03/25 04:57:24;;;;;;;13.23;9.50;;;;;;;19.33;40.78;102884.13;5031568;28;20022;-69
2022/03/25 04:59:49;;;;;;;13.13;9.43;;;;;;;19.34;40.58;102880.56;5032032;28;20753;-69
2022/03/25 05:02:15;;;;;;;13.48;10.07;;;;;;;19.32;40.72;102882.41;5032201;28;20481;-70
2022/03/25 05:04:40;;;;;;;13.57;9.25;;;;;;;19.31;40.65;102879.84;5031208;28;20560;-69
2022/03/25 05:07:05;;;;;;;12.68;9.48;;;;;;;19.30;40.39;102881.66;5032403;28;20021;-69
2022/03/25 05:09:31;;;;;;;14.10;9.13;;;;;;;19.31;40.40;102885.13;5032362;28;20021;-69
2022/03/25 05:11:56;;;;;;;11.82;9.43;;;;;;;19.28;40.43;102885.31;5031211;28;20230;-69
2022/03/25 05:14:21;;;;;;;12.98;8.52;;;;;;;19.27;40.48;102887.09;5032145;28;20469;-70
2022/03/25 05:16:52;;;;;;;12.38;9.10;;;;;;;19.26;40.68;102884.53;5031790;28;20049;-70
2022/03/25 05:19:19;;;;;;;13.38;8.98;;;;;;;19.27;40.53;102891.53;5031407;28;20376;-69
2022/03/25 05:21:44;;;;;;;14.50;9.90;;;;;;;19.26;40.50;102892.47;5031875;28;20113;-70
2022/03/25 05:24:09;;;;;;;14.70;9.67;;;;;;;19.24;40.62;102894.34;5034967;28;20115;-70
2022/03/25 05:26:34;;;;;;;14.17;9.37;;;;;;;19.25;40.37;102891.63;5034614;28;20120;-70
2022/03/25 05:29:00;;;;;;;13.55;9.82;;;;;;;19.26;40.33;102890.66;5035536;28;20108;-70
2022/03/25 05:31:25;;;;;;;11.82;9.02;;;;;;;19.25;40.28;102888.97;5035355;28;20080;-70
2022/03/25 05:33:50;;;;;;;13.25;9.02;;;;;;;19.17;40.25;102886.75;5034482;28;20385;-70
2022/03/25 05:36:15;;;;;;;13.70;9.43;;;;;;;19.19;40.12;102884.03;5035711;28;20071;-70
2022/03/25 05:38:41;;;;;;;15.87;10.20;;;;;;;19.21;40.23;102887.44;5035085;28;20018;-70
2022/03/25 05:41:07;;;;;;;13.70;9.98;;;;;;;19.27;40.31;102891.53;5034600;28;20286;-71
2022/03/25 05:43:33;;;;;;;14.88;9.43;;;;;;;19.31;39.93;102893.94;5035282;28;20420;-70
2022/03/25 05:45:58;;;;;;;14.57;9.95;;;;;;;19.33;40.13;102900.00;5034978;28;20022;-70
2022/03/25 05:48:24;;;;;;;14.98;9.35;;;;;;;19.36;39.85;102898.97;5034572;28;20416;-69
2022/03/25 05:50:51;;;;;;;14.33;9.60;;;;;;;19.39;39.73;102901.44;5035052;28;20021;-69
2022/03/25 05:53:16;;;;;;;14.98;9.75;;;;;;;19.37;39.95;102906.81;5035105;28;20036;-70
2022/03/25 05:55:41;;;;;;;11.90;9.25;;;;;;;19.39;39.62;102902.31;5034002;28;20112;-69
2022/03/25 05:58:07;;;;;;;14.43;9.83;;;;;;;19.39;39.53;102904.06;5034909;28;20057;-70
2022/03/25 06:00:32;;;;;;;13.60;9.88;;;;;;;19.39;39.54;102906.72;5034765;28;20781;-71
2022/03/25 06:02:58;;;;;;;13.00;9.90;;;;;;;19.39;39.37;102904.94;5034096;28;20017;-70
2022/03/25 06:05:24;;;;;;;13.43;9.20;;;;;;;19.39;39.62;102909.38;5035013;28;20052;-70
2022/03/25 06:07:49;;;;;;;13.18;9.68;;;;;;;19.39;39.51;102906.72;5033691;28;20461;-70
2022/03/25 06:10:15;;;;;;;14.18;9.75;;;;;;;19.40;39.47;102908.44;5034658;28;20169;-71
2022/03/25 06:12:41;;;;;;;12.23;9.38;;;;;;;19.40;39.59;102906.63;5034251;28;20037;-71
2022/03/25 06:15:08;;;;;;;13.52;9.73;;;;;;;19.48;40.25;102914.16;5033704;28;20082;-70
2022/03/25 06:17:40;;;;;;;13.30;9.48;;;;;;;19.54;40.19;102915.63;5034337;28;20502;-70
2022/03/25 06:20:07;;;;;;;16.50;10.43;;;;;;;19.57;39.96;102920.75;5034648;28;20080;-71
2022/03/25 06:22:33;;;;;;;13.45;9.00;;;;;;;19.62;40.73;102921.34;5033757;28;20040;-69
2022/03/25 06:24:58;;;;;;;10.70;7.22;;;;;;;19.66;41.11;102924.66;5034327;28;20025;-71
2022/03/25 06:27:24;;;;;;;10.57;7.30;;;;;;;19.74;41.13;102920.69;5034489;28;20105;-71
2022/03/25 06:29:49;;;;;;;11.17;7.13;;;;;;;19.80;41.67;102930.06;5033270;28;20064;-76
2022/03/25 06:32:14;;;;;;;11.10;7.83;;;;;;;19.84;41.56;102922.84;5034322;28;20289;-74
2022/03/25 06:34:39;;;;;;;10.02;6.90;;;;;;;19.86;41.55;102924.44;5033942;28;20278;-68
2022/03/25 06:37:05;;;;;;;11.53;7.03;;;;;;;19.90;41.49;102927.78;5033672;28;20032;-74
2022/03/25 06:39:31;;;;;;;13.43;7.43;;;;;;;19.90;41.66;102922.47;5034333;28;20266;-68
2022/03/25 06:41:56;;;;;;;10.85;7.07;;;;;;;19.91;41.61;102935.63;5033815;28;20311;-74
2022/03/25 06:44:22;;;;;;;11.73;6.97;;;;;;;19.93;42.02;102935.53;5033256;28;20091;-70
2022/03/25 06:46:47;;;;;;;9.90;5.97;;;;;;;19.96;41.62;102940.66;5033777;28;20033;-67
2022/03/25 06:49:12;;;;;;;9.82;6.53;;;;;;;19.98;42.00;102943.22;5034134;28;20024;-68
2022/03/25 06:51:38;;;;;;;9.23;6.53;;;;;;;19.97;41.76;102939.72;5032705;28;20037;-70
2022/03/25 06:54:04;;;;;;;10.63;7.03;;;;;;;19.96;41.46;102937.16;5034016;28;20025;-68
2022/03/25 06:56:34;;;;;;;13.88;9.25;;;;;;;19.93;41.07;102936.41;5033961;28;20022;-67
2022/03/25 06:59:00;;;;;;;14.05;7.25;;;;;;;19.91;41.81;102932.97;5033064;28;20029;-66
2022/03/25 07:01:26;;;;;;;10.30;6.70;;;;;;;19.93;42.28;102930.25;5033885;28;20036;-67
2022/03/25 07:03:51;;;;;;;10.80;6.82;;;;;;;19.94;42.45;102943.38;5033553;28;20040;-69
2022/03/25 07:06:22;;;;;;;10.38;6.88;;;;;;;19.99;42.52;102943.13;5033097;28;20451;-70
2022/03/25 07:08:55;;;;;;;10.05;6.72;;;;;;;20.00;42.60;102942.19;5033437;28;20111;-70
2022/03/25 07:11:21;;;;;;;9.93;6.70;;;;;;;20.03;42.66;102941.19;5032832;28;20032;-67
2022/03/25 07:13:47;;;;;;;10.98;7.38;;;;;;;20.05;42.37;102956.03;5033022;28;20567;-62
2022/03/25 07:16:12;;;;;;;10.52;6.85;;;;;;;20.06;41.66;102956.88;5033594;28;20030;-68
2022/03/25 07:18:37;;;;;;;11.25;7.57;;;;;;;20.08;41.99;102955.84;5032500;28;20075;-69
2022/03/25 07:21:04;;;;;;;11.88;7.22;;;;;;;20.09;42.27;102959.34;5033391;28;20025;-65
2022/03/25 07:23:29;;;;;;;11.13;7.18;;;;;;;20.10;42.52;102959.25;5033359;28;20022;-70
2022/03/25 07:25:55;;;;;;;9.98;6.22;;;;;;;20.13;42.77;102958.25;5032270;28;20018;-70
2022/03/25 07:28:20;;;;;;;11.13;6.65;;;;;;;20.13;42.51;102968.84;5033216;28;20022;-71
2022/03/25 07:30:45;;;;;;;10.38;6.65;;;;;;;20.19;42.68;102972.94;5033042;28;20025;-70
2022/03/25 07:33:11;;;;;;;9.82;6.78;;;;;;;20.23;42.54;102971.81;5032539;28;20048;-70
2022/03/25 07:35:36;;;;;;;11.27;7.05;;;;;;;20.25;42.11;102970.78;5033045;28;20120;-69
2022/03/25 07:38:02;;;;;;;10.23;6.65;;;;;;;20.29;42.37;102968.81;5033091;28;20025;-69
2022/03/25 07:40:27;;;;;;;10.15;6.95;;;;;;;20.27;42.37;102968.91;5032058;28;20033;-69
2022/03/25 07:42:52;;;;;;;11.77;6.63;;;;;;;20.36;42.33;102978.13;5032613;28;20632;-70
2022/03/25 07:45:18;;;;;;;9.13;6.97;;;;;;;20.41;42.37;102975.19;5032713;28;20356;-71
2022/03/25 07:47:49;;;;;;;9.40;6.93;;;;;;;20.46;42.07;102976.66;5032033;28;20028;-71
2022/03/25 07:50:17;;;;;;;12.30;7.07;;;;;;;20.46;42.06;102987.22;5033182;28;20025;-69
2022/03/25 07:52:44;;;;;;;11.32;7.50;;;;;;;20.45;42.07;102984.69;5032832;28;20018;-72
2022/03/25 07:55:10;;;;;;;11.85;7.35;;;;;;;20.45;42.06;102990.81;5031960;28;20025;-71
2022/03/25 07:57:39;;;;;;;11.82;7.45;;;;;;;20.48;41.92;102982.69;5032718;28;20472;-69
2022/03/25 08:00:11;;;;;;;12.00;8.60;;;;;;;20.49;40.26;102996.81;5033039;28;20025;-71
2022/03/25 08:02:37;;;;;;;14.60;9.88;;;;;;;20.49;41.13;102999.47;5032977;28;20096;-71
2022/03/25 08:05:03;;;;;;;12.95;8.43;;;;;;;20.47;41.55;103002.19;5033121;28;20022;-70
2022/03/25 08:07:28;;;;;;;13.38;8.85;;;;;;;20.55;41.51;103004.38;5032012;28;20036;-74
2022/03/25 08:09:54;;;;;;;12.73;9.40;;;;;;;20.69;41.54;103010.72;5032676;28;20500;-76
2022/03/25 08:12:21;;;;;;;12.63;8.60;;;;;;;20.75;41.43;103002.41;5033112;28;20049;-75
2022/03/25 08:14:46;;;;;;;13.07;8.65;;;;;;;20.89;41.16;103013.06;5031979;28;20123;-71
2022/03/25 08:17:12;;;;;;;12.02;8.90;;;;;;;20.98;40.94;103007.22;5032973;28;20490;-71
2022/03/25 08:19:37;;;;;;;13.38;8.55;;;;;;;21.05;40.69;103009.50;5032700;28;20036;-73
2022/03/25 08:22:02;;;;;;;14.47;9.33;;;;;;;21.10;40.65;103010.91;5031835;28;20042;-73
2022/03/25 08:29:55;;;;;;;11.77;8.27;;;;;;;21.18;40.57;103013.97;5031687;28;20040;-75
2022/03/25 08:32:21;;;;;;;12.63;8.80;;;;;;;21.21;40.48;103023.53;5032566;28;20033;-75
2022/03/25 08:34:46;;;;;;;14.20;8.43;;;;;;;21.20;40.51;103024.47;5032149;28;20470;-74
2022/03/25 08:37:11;;;;;;;14.25;8.77;;;;;;;21.21;40.41;103023.53;5031650;28;20310;-74
2022/03/25 08:39:36;;;;;;;15.20;9.73;;;;;;;21.22;40.38;103027.91;5032529;28;20046;-75
2022/03/25 08:42:02;;;;;;;11.67;8.37;;;;;;;21.22;40.46;103021.72;5032698;28;20763;-74
2022/03/25 08:44:28;;;;;;;14.07;8.95;;;;;;;21.22;40.46;103021.72;5031939;28;20037;-72
2022/03/25 08:46:53;;;;;;;10.98;7.93;;;;;;;21.19;40.55;103033.38;5032359;28;20032;-74
2022/03/25 08:49:18;;;;;;;11.88;7.85;;;;;;;21.17;40.43;103035.25;5033804;28;20033;-69
2022/03/25 08:51:44;;;;;;;13.60;8.50;;;;;;;21.17;40.43;103033.47;5031557;28;20064;-72
2022/03/25 08:54:09;;;;;;;11.48;8.52;;;;;;;21.18;40.76;103029.03;5032501;28;20278;-70
2022/03/25 08:56:35;;;;;;;10.00;8.05;;;;;;;21.19;40.48;103033.38;5031612;28;20508;-70
2022/03/25 08:59:00;;;;;;;11.00;7.97;;;;;;;21.16;40.45;103033.56;5032458;28;20030;-70
2022/03/25 09:01:26;;;;;;;11.20;7.72;;;;;;;21.14;40.42;103036.31;5056004;28;20035;-70
2022/03/25 09:03:51;;;;;;;11.98;7.63;;;;;;;21.11;40.72;103039.16;5054965;28;20453;-71
2022/03/25 09:06:17;;;;;;;11.43;7.63;;;;;;;21.09;40.82;103045.47;5055878;28;20035;-71
2022/03/25 09:08:42;;;;;;;12.65;8.07;;;;;;;21.04;40.79;103031.66;5055935;28;20372;-70
2022/03/25 09:11:09;;;;;;;11.95;8.57;;;;;;;21.05;40.69;103044.81;5055226;28;20027;-70
2022/03/25 09:13:35;;;;;;;10.32;7.75;;;;;;;21.01;40.89;103045.94;5055316;28;20091;-69
2022/03/25 09:16:00;;;;;;;10.93;7.82;;;;;;;21.02;41.20;103050.28;5055740;28;20017;-69
2022/03/25 09:18:26;;;;;;;12.75;8.00;;;;;;;21.00;41.30;103046.88;5055652;28;20021;-65
2022/03/25 09:20:51;;;;;;;11.87;8.30;;;;;;;20.98;41.07;103049.63;5055359;28;20102;-66
2022/03/25 09:23:17;;;;;;;10.97;7.47;;;;;;;21.00;41.05;103054.84;5055752;28;20266;-66
2022/03/25 09:25:42;;;;;;;10.38;7.28;;;;;;;21.01;41.09;103052.09;5054792;28;20278;-66
2022/03/25 09:28:08;;;;;;;10.13;7.65;;;;;;;21.04;41.14;103047.56;5055437;28;20047;-66
2022/03/25 09:30:34;;;;;;;11.80;7.45;;;;;;;21.05;39.72;103052.75;5055157;28;20482;-67
2022/03/25 09:32:59;;;;;;;16.23;11.18;;;;;;;20.99;39.85;103050.47;5054704;28;20096;-66
2022/03/25 09:35:25;;;;;;;11.57;8.77;;;;;;;20.96;40.79;103048.84;5055208;28;20048;-67
2022/03/25 09:37:51;;;;;;;10.77;8.18;;;;;;;20.95;41.41;103043.63;5055189;28;20053;-67
2022/03/25 09:40:25;;;;;;;10.60;7.50;;;;;;;21.00;41.64;103047.72;5054622;28;20043;-67
2022/03/25 09:42:52;;;;;;;11.27;7.63;;;;;;;21.00;41.65;103045.09;5055119;28;20096;-67
2022/03/25 09:45:19;;;;;;;11.30;7.80;;;;;;;21.07;41.56;103052.69;5055253;28;20499;-67
2022/03/25 09:47:45;;;;;;;11.52;7.05;;;;;;;21.09;41.86;103048.13;5054053;28;20079;-67
2022/03/25 09:50:13;;;;;;;11.13;7.45;;;;;;;21.08;41.76;103041.09;5055282;28;20122;-68
2022/03/25 09:52:40;;;;;;;8.93;6.50;;;;;;;21.09;41.89;103048.97;5054998;28;20017;-68
2022/03/25 09:55:06;;;;;;;10.02;7.00;;;;;;;21.09;41.88;103045.47;5054539;28;20033;-67
2022/03/25 09:57:32;;;;;;;11.65;6.45;;;;;;;21.10;42.12;103044.53;5055027;28;20032;-67
2022/03/25 09:59:57;;;;;;;10.35;6.90;;;;;;;21.09;41.88;103040.16;5053759;28;20020;-67
2022/03/25 10:02:24;;;;;;;11.27;7.00;;;;;;;21.11;41.91;103043.56;5054749;28;20163;-68
2022/03/25 10:04:50;;;;;;;9.57;6.63;;;;;;;21.10;41.72;103039.25;5054537;28;20464;-67
2022/03/25 10:07:18;;;;;;;9.43;7.00;;;;;;;21.11;41.84;103041.81;5054218;28;20053;-67
2022/03/25 10:09:44;;;;;;;10.90;6.40;;;;;;;21.11;41.79;103039.16;5053984;28;20025;-67
2022/03/25 10:12:26;;;;;;;11.70;7.13;;;;;;;21.10;41.85;103040.09;5054607;28;20087;-67
2022/03/25 10:15:10;;;;;;;11.25;6.90;;;;;;;21.12;42.04;103038.19;5053793;28;20037;-68
2022/03/25 10:17:52;;;;;;;;;;;;;;;21.12;41.97;103040.84;5055002;28;20047;-68
2022/03/25 10:20:20;;;;;;;10.95;7.00;;;;;;;21.14;41.95;103032.78;5054625;28;19964;-68
2022/03/25 10:23:10;;;;;;;10.82;6.65;;;;;;;21.13;41.89;103033.75;5054047;28;20023;-68
2022/03/25 10:25:40;;;;;;;9.38;6.85;;;;;;;21.12;41.73;103038.19;5054388;28;20024;-68
2022/03/25 10:28:21;;;;;;;10.80;6.90;;;;;;;21.11;41.83;103027.66;5053861;28;20032;-68
2022/03/25 10:30:52;;;;;;;12.88;7.40;;;;;;;21.10;40.89;103033.94;5054111;28;20472;-69
2022/03/25 10:33:26;;;;;;;12.25;7.50;;;;;;;21.08;41.43;103033.16;5054383;28;20060;-69
2022/03/25 10:36:07;;;;;;;9.43;6.63;;;;;;;21.06;41.97;103030.63;5053446;28;20024;-68
2022/03/25 10:39:01;;;;;;;11.27;6.45;;;;;;;21.07;41.93;103024.34;5054364;28;20033;-68
2022/03/25 10:41:49;;;;;;;11.15;6.82;;;;;;;21.07;41.97;103021.72;5054156;28;20075;-68
2022/03/25 10:44:15;;;;;;;10.60;6.32;;;;;;;21.04;42.27;103019.25;5053651;28;20026;-68
2022/03/25 10:46:49;;;;;;;9.73;6.45;;;;;;;21.04;42.35;103016.59;5053696;28;20048;-68
2022/03/25 10:49:17;;;;;;;10.45;6.25;;;;;;;21.04;42.32;103027.19;5053461;28;20025;-69
2022/03/25 10:51:50;;;;;;;9.20;5.60;;;;;;;21.04;42.48;103021.88;5053781;28;20104;-70
2022/03/25 10:54:16;;;;;;;8.68;5.75;;;;;;;21.03;42.39;103022.84;5053843;28;20161;-70
2022/03/25 10:56:53;;;;;;;8.95;5.68;;;;;;;21.03;42.61;103020.19;5054221;28;20025;-75
2022/03/25 10:59:26;;;;;;;10.43;6.82;;;;;;;21.09;42.63;103021.63;5053920;28;20095;-71
2022/03/25 11:01:57;;;;;;;12.23;6.45;;;;;;;21.11;42.83;103017.06;5053158;28;20029;-73
2022/03/25 11:04:22;;;;;;;11.20;6.53;;;;;;;21.13;42.82;103009.91;5052972;28;20061;-75
2022/03/25 11:06:48;;;;;;;10.98;6.50;;;;;;;21.19;42.84;103014.84;5053404;28;20432;-73
2022/03/25 11:09:15;;;;;;;10.32;6.68;;;;;;;21.20;42.94;103005.91;5053626;28;20057;-71
2022/03/25 11:11:42;;;;;;;10.27;6.57;;;;;;;21.21;42.56;103007.63;5052589;28;20032;-70
2022/03/25 11:14:08;;;;;;;13.10;6.65;;;;;;;21.25;42.54;103013.59;5053291;28;20122;-73
2022/03/25 11:16:39;;;;;;;9.32;5.55;;;;;;;21.28;42.59;103016.91;5053201;28;20036;-69
2022/03/25 11:19:08;;;;;;;10.60;6.10;;;;;;;21.29;42.42;103010.66;5052517;28;20029;-72